Flight Track Log - Related Links

Times and Time Zones

All times are in EDT time to prevent confusion due to time zone crossing. See the UAL5848 flight status page for this flight to view local times or setup timezone preferences in your user account.

Time Position Orientation Groundspeed Altitude Reporting Facility
EDT Latitude Longitude Course Direction KTS MPH feet Rate Location/Type
Mon 08:00:42 AM 42.0167 -87.9333 85° East 182 209 2,600  Level Chicago TRACON
Mon 08:01:42 AM 42.0667 -87.8833 37° Northeast 256 295 4,300 1,489 Climbing Chicago TRACON
Mon 08:03:00 AM 42.1922 -87.2877 90° East  Level Estimated
Mon 08:03:03 AM 42.1431 -87.7939 41° Northeast 270 311 6,100  Level Chicago Center
Mon 08:04:00 AM 42.2148 -87.1199 80° East  Level FlightAware
Mon 08:04:05 AM 42.1856 -87.6925 60° Northeast 301 346 8,400  Level Chicago Center
Mon 08:05:00 AM 42.2646 -86.9720 85° East  Level Estimated
Mon 08:05:06 AM 42.2047 -87.5756 77° East 316 364 10,700  Level Chicago Center
Mon 08:06:08 AM 42.2231 -87.4519 79° East 332 382 12,400 1,210 Climbing Chicago Center
Mon 08:07:10 AM 42.2431 -87.3158 79° East 363 418 13,200 968 Climbing Chicago Center
Mon 08:08:12 AM 42.2644 -87.1683 79° East 395 455 14,400 1,317 Climbing Chicago Center
Mon 08:09:13 AM 42.2811 -86.9844 83° East 413 475 15,900 1,317 Climbing Chicago Center
Mon 08:10:15 AM 42.2878 -86.8258 87° East 423 487 17,100 1,161 Climbing Chicago Center
Mon 08:11:17 AM 42.2939 -86.6742 87° East 429 494 18,300 1,258 Climbing Chicago Center
Mon 08:12:19 AM 42.3014 -86.4894 87° East 438 504 19,700 1,258 Climbing Chicago Center
Mon 08:13:21 AM 42.3075 -86.3228 87° East 443 510 20,900 1,065 Climbing Chicago Center
Mon 08:14:23 AM 42.3125 -86.1561 88° East 446 513 21,900 532 Climbing Chicago Center
Mon 08:15:25 AM 42.3147 -85.9828 89° East 458 527 22,000 435 Climbing Chicago Center
Mon 08:16:27 AM 42.3117 -85.8011 91° East 477 549 22,800 968 Climbing Chicago Center
Mon 08:17:29 AM 42.3089 -85.5844 91° East 484 557 24,000 1,065 Climbing Chicago Center
Mon 08:18:31 AM 42.3061 -85.4047 91° East 483 556 25,000 919 Climbing Chicago Center
Mon 08:19:33 AM 42.3036 -85.2247 91° East 483 556 25,900 919 Climbing Chicago Center
Mon 08:20:35 AM 42.3000 -85.0450 91° East 482 555 26,900 927 Climbing Chicago Center
Mon 08:21:36 AM 42.2967 -84.8636 91° East 484 557 27,800 927 Climbing Chicago Center
Mon 08:22:38 AM 42.2919 -84.6836 92° East 483 556 28,800 1,065 Climbing Chicago Center
Mon 08:23:40 AM 42.2892 -84.4667 91° East 486 559 30,000 941 Climbing Chicago Center
Mon 08:24:20 AM 42.2986 -84.3725 82° East 496 571 30,400 941 Climbing Cleveland Center
Mon 08:25:22 AM 42.3311 -84.1503 79° East 502 578 31,600 1,065 Climbing Cleveland Center
Mon 08:26:24 AM 42.3564 -83.9639 80° East 505 581 32,600 968 Climbing Cleveland Center
Mon 08:27:26 AM 42.3828 -83.7758 79° East 507 583 33,600 960 Climbing Cleveland Center
Mon 08:28:29 AM 42.4092 -83.5847 79° East 509 586 34,600 672 Climbing Cleveland Center
Mon 08:29:31 AM 42.4583 -83.3989 70° East 513 590 35,000 194 Climbing Cleveland Center
Mon 08:30:33 AM 42.5100 -83.2083 70° East 529 609 35,000  Level Cleveland Center
Mon 08:31:35 AM 42.5617 -83.0144 70° East 542 624 35,000  Level Cleveland Center
Mon 08:32:37 AM 42.6097 -82.8289 71° East 529 609 35,000  Level Cleveland Center
Mon 08:33:39 AM 42.6669 -82.6089 70° East 517 595 35,000  Level Cleveland Center
Mon 08:34:41 AM 42.7142 -82.4289 70° East 511 588 35,000  Level Cleveland Center
Mon 08:35:44 AM 42.7617 -82.2458 70° East 512 589 35,000  Level Cleveland Center
Mon 08:36:45 AM 42.8094 -82.0556 71° East 528 608 35,000  Level Cleveland Center
Mon 08:38:48 AM 42.9000 -81.6333 74° East 540 621 35,000  Level Toronto Center
Mon 08:39:48 AM 42.9500 -81.4333 71° East 540 621 35,000  Level Toronto Center
Mon 08:40:48 AM 43.0000 -81.2333 71° East 550 633 35,000  Level Toronto Center
Mon 08:41:48 AM 43.0500 -81.0500 69° East 550 633 35,000  Level Toronto Center
Mon 08:42:48 AM 43.1333 -80.8667 58° Northeast 540 621 35,000  Level Toronto Center
Mon 08:43:48 AM 43.2167 -80.6833 58° Northeast 540 621 35,000  Level Toronto Center
Mon 08:44:48 AM 43.2833 -80.5333 59° Northeast 530 610 35,000  Level Toronto Center
Mon 08:46:48 AM 43.4333 -80.1667 61° Northeast 520 598 35,000  Level Toronto Center
Mon 08:47:48 AM 43.5000 -79.9833 63° Northeast 520 598 35,000  Level Toronto Center
Mon 08:48:48 AM 43.5667 -79.8167 61° Northeast 520 598 35,000  Level Toronto Center
Mon 08:49:48 AM 43.6333 -79.6333 63° Northeast 520 598 35,000  Level Toronto Center
Mon 08:50:48 AM 43.7000 -79.4500 63° Northeast 520 598 35,000  Level Toronto Center
Mon 08:51:48 AM 43.7500 -79.2667 69° East 530 610 35,000  Level Toronto Center
Mon 08:52:48 AM 43.8000 -79.0833 69° East 530 610 35,000  Level Toronto Center
Mon 08:53:48 AM 43.8667 -78.8667 67° East 530 610 35,000  Level Toronto Center
Mon 08:54:48 AM 43.9167 -78.6833 69° East 530 610 35,000  Level Toronto Center
Mon 08:55:48 AM 43.9833 -78.5000 63° Northeast 530 610 35,000  Level Toronto Center
Mon 08:56:48 AM 44.0167 -78.3167 76° East 530 610 35,000  Level Toronto Center
Mon 08:57:48 AM 44.0833 -78.1500 61° Northeast 530 610 35,000 -100 Level Toronto Center
Mon 08:58:48 AM 44.1667 -77.9667 58° Northeast 530 610 34,800 -950 Descending Toronto Center
Mon 08:59:48 AM 44.2333 -77.8000 61° Northeast 520 598 33,100 -1,950 Descending Toronto Center
Mon 09:00:48 AM 44.3333 -77.6333 50° Northeast 510 587 30,900 -2,350 Descending Toronto Center
Mon 09:01:48 AM 44.4000 -77.4667 61° Northeast 510 587 28,400 -2,606 Descending Toronto Center
Mon 09:02:27 AM 44.4500 -77.3667 55° Northeast 500 575 26,600 -2,242 Descending Montreal Center
Mon 09:03:27 AM 44.5167 -77.2167 58° Northeast 490 564 24,700 -1,800 Descending Montreal Center
Mon 09:04:27 AM 44.5833 -77.0667 58° Northeast 470 541 23,000 -2,150 Descending Montreal Center
Mon 09:05:27 AM 44.6667 -76.9167 52° Northeast 460 529 20,400 -2,900 Descending Montreal Center
Mon 09:06:27 AM 44.7333 -76.7667 58° Northeast 440 506 17,200 -3,100 Descending Montreal Center
Mon 09:07:27 AM 44.8000 -76.6500 51° Northeast 410 472 14,200 -2,900 Descending Montreal Center
Mon 09:08:27 AM 44.8500 -76.5333 59° Northeast 370 426 11,400 -2,450 Descending Montreal Center
Mon 09:09:27 AM 44.9000 -76.4333 55° Northeast 340 391 9,300 -1,700 Descending Montreal Center
Mon 09:10:27 AM 44.9667 -76.3167 51° Northeast 310 357 8,000 -1,300 Descending Montreal Center
Mon 09:11:27 AM 45.0000 -76.2333 60° Northeast 300 345 6,700 -1,350 Descending Montreal Center
Mon 09:12:27 AM 45.0667 -76.1333 47° Northeast 290 334 5,300 -1,250 Descending Montreal Center
Mon 09:13:27 AM 45.1000 -76.0667 55° Northeast 270 311 4,200 -1,050 Descending Montreal Center
Mon 09:14:27 AM 45.1500 -76.0000 43° Northeast 250 288 3,200 -600 Descending Montreal Center
Mon 09:15:27 AM 45.1833 -75.9000 65° Northeast 230 265 3,000 -100 Descending Montreal Center
Mon 09:16:27 AM 45.2167 -75.8333 55° Northeast 210 242 3,000 -500 Level Montreal Center
Mon 09:17:27 AM 45.2500 -75.7500 60° Northeast 200 230 2,000 -950 Descending Montreal Center
Mon 09:18:27 AM 45.2833 -75.7000 47° Northeast 160 184 1,100 -800 Descending Montreal Center
Mon 09:19:27 AM 45.3000 -75.6667 55° Northeast 140 161 400 -700 Descending Montreal Center

Login

Don't have an account? Register now (free) for customized features, flight alerts, and more!